createdAt,value
2022-09-07T00:00:44.482Z,8.20
2022-09-07T00:03:11.891Z,8.50
2022-09-07T00:05:43.590Z,8.90
2022-09-07T00:08:11.161Z,7.70
2022-09-07T00:10:39.577Z,9.50
2022-09-07T00:13:08.632Z,9.30
2022-09-07T00:15:40.812Z,8.50
2022-09-07T00:18:08.357Z,7.30
2022-09-07T00:20:35.808Z,7.30
2022-09-07T00:23:03.261Z,7.00
2022-09-07T00:25:32.030Z,8.00
2022-09-07T00:27:59.711Z,7.20
2022-09-07T00:30:26.862Z,9.40
2022-09-07T00:32:54.108Z,6.70
2022-09-07T00:35:21.388Z,8.00
2022-09-07T00:37:49.029Z,7.70
2022-09-07T00:40:16.483Z,10.50
2022-09-07T00:42:43.804Z,8.90
2022-09-07T00:45:18.987Z,7.60
2022-09-07T00:48:04.552Z,8.90
2022-09-07T00:50:44.912Z,6.80
2022-09-07T00:53:35.020Z,6.60
2022-09-07T00:56:04.033Z,7.90
2022-09-07T00:58:32.249Z,7.50
2022-09-07T01:00:59.522Z,7.80
2022-09-07T01:03:36.913Z,7.70
2022-09-07T01:06:10.297Z,7.80
2022-09-07T01:08:37.556Z,7.40
2022-09-07T01:11:05.322Z,9.40
2022-09-07T01:13:32.753Z,7.60
2022-09-07T01:16:01.944Z,8.70
2022-09-07T01:18:59.552Z,8.90
2022-09-07T01:21:30.155Z,6.50
2022-09-07T01:24:42.993Z,7.10
2022-09-07T01:27:31.543Z,7.10
2022-09-07T01:30:04.634Z,7.70
2022-09-07T01:33:02.632Z,9.40
2022-09-07T01:35:37.232Z,7.90
2022-09-07T01:38:39.512Z,9.10
2022-09-07T01:41:23.700Z,8.60
2022-09-07T01:44:15.993Z,6.90
2022-09-07T01:46:44.418Z,8.90
2022-09-07T01:49:20.101Z,7.10
2022-09-07T01:51:51.496Z,9.30
2022-09-07T01:54:32.733Z,7.80
2022-09-07T01:57:06.862Z,7.20
2022-09-07T01:59:38.815Z,10.30
2022-09-07T02:02:19.398Z,11.40
2022-09-07T02:04:50.924Z,9.60
2022-09-07T02:07:27.512Z,7.70
2022-09-07T02:10:33.695Z,8.00
2022-09-07T02:13:07.427Z,7.90
2022-09-07T02:15:58.117Z,9.00
2022-09-07T02:18:28.181Z,8.90
2022-09-07T02:20:58.315Z,8.20
2022-09-07T02:23:29.869Z,7.60
2022-09-07T02:26:02.252Z,7.70
2022-09-07T02:28:32.837Z,7.50
2022-09-07T02:31:00.782Z,7.00
2022-09-07T02:33:29.154Z,7.50
2022-09-07T02:35:56.592Z,7.70
2022-09-07T02:38:24.499Z,8.30
2022-09-07T02:40:55.995Z,7.60
2022-09-07T02:43:24.166Z,7.60
2022-09-07T02:45:54.352Z,8.00
2022-09-07T02:48:31.147Z,8.20
2022-09-07T02:51:19.592Z,9.30
2022-09-07T02:54:15.552Z,8.40
2022-09-07T02:56:57.531Z,8.00
2022-09-07T02:59:30.521Z,10.30
2022-09-07T03:02:06.003Z,7.20
2022-09-07T03:04:48.473Z,7.10
2022-09-07T03:07:19.289Z,7.90
2022-09-07T03:09:49.901Z,7.80
2022-09-07T03:12:17.605Z,8.30
2022-09-07T03:14:45.172Z,8.90
2022-09-07T03:17:12.721Z,7.40
2022-09-07T03:19:39.978Z,9.50
2022-09-07T03:22:07.635Z,8.30
2022-09-07T03:24:34.788Z,8.40
2022-09-07T03:27:02.141Z,6.80
2022-09-07T03:29:29.288Z,9.00
2022-09-07T03:31:56.439Z,7.50
2022-09-07T03:34:23.585Z,7.80
2022-09-07T03:36:50.737Z,8.00
2022-09-07T03:39:21.264Z,7.50
2022-09-07T03:41:49.045Z,7.90
2022-09-07T03:44:16.194Z,8.80
2022-09-07T03:46:44.761Z,7.30
2022-09-07T03:49:11.913Z,7.40
2022-09-07T03:51:39.882Z,8.70
2022-09-07T03:54:07.652Z,7.90
2022-09-07T03:56:34.913Z,8.60
2022-09-07T03:59:02.051Z,7.90
2022-09-07T04:01:29.572Z,7.20
2022-09-07T04:04:02.915Z,8.80
2022-09-07T04:06:30.768Z,7.70
2022-09-07T04:09:01.609Z,6.80
2022-09-07T04:11:28.856Z,8.90
2022-09-07T04:13:56.117Z,8.90
2022-09-07T04:16:25.668Z,7.90
2022-09-07T04:18:55.162Z,6.80
2022-09-07T04:21:23.907Z,7.80
2022-09-07T04:23:51.466Z,9.20
2022-09-07T04:26:24.534Z,6.80
2022-09-07T04:28:55.206Z,6.50
2022-09-07T04:31:23.583Z,6.90
2022-09-07T04:33:51.952Z,10.90
2022-09-07T04:36:20.788Z,7.70
2022-09-07T04:38:54.384Z,8.20
2022-09-07T04:41:21.912Z,7.30
2022-09-07T04:43:53.617Z,7.10
2022-09-07T04:46:24.132Z,8.30
2022-09-07T04:48:53.660Z,9.00
2022-09-07T04:51:22.693Z,8.80
2022-09-07T04:53:51.152Z,7.40
2022-09-07T04:56:19.263Z,6.90
2022-09-07T04:58:47.628Z,7.50
2022-09-07T05:01:18.198Z,9.60
2022-09-07T05:03:45.620Z,6.90
2022-09-07T05:06:13.602Z,7.90
2022-09-07T05:08:43.714Z,6.40
2022-09-07T05:11:12.516Z,8.50
2022-09-07T05:13:39.921Z,9.20
2022-09-07T05:16:14.657Z,8.50
2022-09-07T05:18:42.710Z,9.30
2022-09-07T05:21:15.186Z,8.20
2022-09-07T05:23:43.246Z,6.50
2022-09-07T05:26:10.997Z,9.00
2022-09-07T05:28:38.823Z,8.60
2022-09-07T05:31:23.243Z,8.90
2022-09-07T05:36:43.048Z,8.00
2022-09-07T05:39:10.616Z,8.60
2022-09-07T05:41:38.470Z,9.30
2022-09-07T05:46:53.895Z,10.20
2022-09-07T05:49:21.117Z,8.10
2022-09-07T05:51:48.860Z,11.00
2022-09-07T05:54:16.132Z,8.80
2022-09-07T05:56:43.388Z,8.10
2022-09-07T05:59:11.367Z,9.00
2022-09-07T06:01:38.858Z,7.70
2022-09-07T06:04:06.066Z,8.80
2022-09-07T06:06:33.479Z,9.20
2022-09-07T06:09:00.877Z,8.40
2022-09-07T06:11:28.152Z,7.40
2022-09-07T06:13:55.380Z,7.30
2022-09-07T06:16:23.295Z,6.90
2022-09-07T06:18:50.983Z,9.10
2022-09-07T06:21:23.063Z,7.30
2022-09-07T06:23:50.733Z,7.00
2022-09-07T06:26:19.806Z,8.00
2022-09-07T06:28:50.762Z,8.50
2022-09-07T06:31:20.809Z,8.00
2022-09-07T06:33:48.959Z,9.00
2022-09-07T06:36:21.554Z,7.80
2022-09-07T06:38:49.616Z,8.10
2022-09-07T06:44:05.477Z,8.70
2022-09-07T06:49:20.510Z,7.70
2022-09-07T06:51:47.821Z,7.40
2022-09-07T06:57:09.489Z,8.70
2022-09-07T06:59:37.515Z,11.00
2022-09-07T07:02:06.147Z,10.30
2022-09-07T07:04:37.781Z,9.80
2022-09-07T07:07:07.101Z,9.50
2022-09-07T07:09:34.549Z,9.80
2022-09-07T07:12:03.141Z,8.70
2022-09-07T07:14:33.779Z,8.50
2022-09-07T07:17:02.980Z,9.80
2022-09-07T07:19:30.223Z,8.90
2022-09-07T07:24:45.064Z,8.80
2022-09-07T07:27:12.473Z,8.40
2022-09-07T07:29:39.714Z,12.60
2022-09-07T07:32:07.069Z,10.90
2022-09-07T07:34:34.385Z,8.60
2022-09-07T07:37:01.695Z,10.50
2022-09-07T07:42:16.372Z,9.80
2022-09-07T07:44:43.603Z,10.10
2022-09-07T07:47:10.872Z,9.20
2022-09-07T07:49:38.022Z,11.80
2022-09-07T07:54:53.808Z,9.20
2022-09-07T07:57:21.592Z,10.80
2022-09-07T07:59:48.846Z,10.60
2022-09-07T08:02:17.220Z,11.60
2022-09-07T08:04:45.693Z,8.60
2022-09-07T08:07:13.343Z,10.00
2022-09-07T08:09:41.833Z,8.60
2022-09-07T08:12:13.342Z,11.40
2022-09-07T08:14:41.709Z,10.50
2022-09-07T08:17:14.025Z,8.20
2022-09-07T08:19:41.694Z,9.20
2022-09-07T08:22:11.187Z,9.70
2022-09-07T08:24:38.441Z,12.10
2022-09-07T08:27:05.700Z,9.10
2022-09-07T08:29:35.080Z,7.70
2022-09-07T08:32:06.988Z,10.20
2022-09-07T08:34:36.762Z,11.10
2022-09-07T08:37:04.022Z,11.20
2022-09-07T08:39:31.418Z,8.00
2022-09-07T08:42:07.750Z,10.50
2022-09-07T08:44:42.120Z,8.70
2022-09-07T08:47:40.237Z,10.70
2022-09-07T08:50:12.262Z,9.40
2022-09-07T08:52:52.812Z,10.60
2022-09-07T08:55:29.908Z,11.10
2022-09-07T08:58:22.192Z,11.50
2022-09-07T09:06:57.130Z,11.90
2022-09-07T09:09:50.619Z,10.90
2022-09-07T09:12:52.710Z,10.90
2022-09-07T09:15:23.032Z,9.00
2022-09-07T09:18:18.133Z,9.50
2022-09-07T09:20:51.073Z,10.40
2022-09-07T09:23:20.832Z,12.40
2022-09-07T09:25:54.932Z,10.40
2022-09-07T09:28:24.649Z,10.70
2022-09-07T09:30:53.810Z,11.90
2022-09-07T09:33:27.042Z,9.50
2022-09-07T09:35:56.764Z,9.30
2022-09-07T09:38:34.529Z,10.40
2022-09-07T09:41:15.710Z,9.90
2022-09-07T09:43:48.512Z,9.60
2022-09-07T09:46:20.725Z,11.40
2022-09-07T09:48:54.122Z,10.60
2022-09-07T09:54:23.905Z,10.80
2022-09-07T09:56:51.759Z,11.70
2022-09-07T10:05:35.755Z,10.90
2022-09-07T10:08:06.862Z,11.20
2022-09-07T10:10:34.071Z,8.60
2022-09-07T10:13:01.293Z,11.40
2022-09-07T10:15:40.522Z,9.30
2022-09-07T10:18:18.903Z,11.10
2022-09-07T10:20:46.121Z,11.00
2022-09-07T10:23:24.424Z,11.80
2022-09-07T10:25:52.438Z,10.20
2022-09-07T10:28:25.157Z,11.90
2022-09-07T10:31:14.560Z,9.10
2022-09-07T10:34:27.029Z,12.20
2022-09-07T10:37:09.169Z,13.20
2022-09-07T10:39:40.133Z,9.40
2022-09-07T10:42:10.429Z,8.60
2022-09-07T10:44:43.562Z,9.40
2022-09-07T10:47:44.753Z,11.90
2022-09-07T10:50:29.142Z,9.90
2022-09-07T10:53:43.849Z,10.30
2022-09-07T10:56:15.731Z,11.20
2022-09-07T10:59:05.637Z,8.50
2022-09-07T11:01:58.294Z,11.40
2022-09-07T11:04:40.686Z,11.10
2022-09-07T11:07:15.678Z,10.00
2022-09-07T11:09:49.194Z,11.70
2022-09-07T11:12:27.349Z,10.40
2022-09-07T11:15:07.323Z,12.30
2022-09-07T11:18:05.288Z,13.10
2022-09-07T11:20:37.739Z,8.80
2022-09-07T11:23:29.173Z,11.10
2022-09-07T11:26:07.830Z,10.40
2022-09-07T11:31:45.933Z,9.10
2022-09-07T11:34:24.635Z,11.30
2022-09-07T11:37:11.421Z,11.70
2022-09-07T11:39:41.479Z,11.10
2022-09-07T11:42:43.134Z,8.70
2022-09-07T11:45:22.715Z,11.60
2022-09-07T11:47:57.021Z,10.90
2022-09-07T11:50:24.844Z,10.90
2022-09-07T11:53:01.435Z,11.40
2022-09-07T11:55:31.744Z,9.20
2022-09-07T11:58:44.041Z,10.40
2022-09-07T12:01:19.977Z,9.80
2022-09-07T12:04:05.643Z,11.60
2022-09-07T12:07:03.702Z,10.20
2022-09-07T12:09:52.356Z,12.30
2022-09-07T12:12:42.464Z,11.10
2022-09-07T12:15:30.982Z,8.80
2022-09-07T12:18:05.587Z,13.00
2022-09-07T12:20:44.212Z,9.70
2022-09-07T12:23:17.382Z,10.40
2022-09-07T12:25:49.358Z,11.90
2022-09-07T12:28:25.589Z,9.40
2022-09-07T12:31:07.133Z,9.70
2022-09-07T12:33:38.996Z,10.20
2022-09-07T12:36:38.670Z,9.60
2022-09-07T12:39:17.429Z,11.30
2022-09-07T12:45:30.294Z,11.50
2022-09-07T12:48:00.410Z,10.10
2022-09-07T12:50:30.061Z,9.80
2022-09-07T12:53:48.552Z,10.40
2022-09-07T12:56:39.332Z,10.90
2022-09-07T12:59:37.244Z,10.40
2022-09-07T13:02:24.290Z,10.00
2022-09-07T13:04:57.206Z,11.80
2022-09-07T13:07:46.477Z,10.10
2022-09-07T13:10:33.536Z,11.60
2022-09-07T13:13:04.769Z,9.90
2022-09-07T13:15:41.030Z,8.70
2022-09-07T13:18:27.278Z,10.20
2022-09-07T13:21:09.493Z,10.50
2022-09-07T13:23:40.773Z,9.80
2022-09-07T13:26:10.176Z,9.80
2022-09-07T13:28:52.668Z,11.40
2022-09-07T13:31:23.608Z,12.30
2022-09-07T13:33:52.457Z,11.60
2022-09-07T13:36:24.480Z,9.80
2022-09-07T13:38:53.567Z,8.80
2022-09-07T13:41:29.898Z,11.60
2022-09-07T13:44:00.684Z,10.90
2022-09-07T13:46:56.884Z,9.30
2022-09-07T13:49:23.858Z,8.70
2022-09-07T13:52:12.813Z,9.40
2022-09-07T13:55:01.972Z,9.50
2022-09-07T13:57:31.466Z,11.30
2022-09-07T13:59:59.160Z,10.60
2022-09-07T14:02:33.117Z,11.40
2022-09-07T14:05:01.232Z,10.90
2022-09-07T14:07:31.842Z,10.90
2022-09-07T14:10:20.781Z,9.30
2022-09-07T14:12:50.916Z,10.70
2022-09-07T14:15:33.783Z,9.90
2022-09-07T14:18:06.617Z,9.80
2022-09-07T14:20:42.275Z,11.90
2022-09-07T14:23:25.721Z,9.70
2022-09-07T14:26:16.653Z,10.30
2022-09-07T14:28:46.222Z,9.20
2022-09-07T14:31:16.204Z,11.50
2022-09-07T14:33:51.801Z,9.10
2022-09-07T14:36:45.415Z,16.70
2022-09-07T14:39:09.023Z,12.50
2022-09-07T14:41:41.084Z,10.50
2022-09-07T14:44:34.037Z,9.40
2022-09-07T14:47:04.805Z,11.40
2022-09-07T14:49:32.326Z,12.40
2022-09-07T14:52:00.748Z,14.70
2022-09-07T14:54:31.644Z,11.70
2022-09-07T14:57:02.904Z,11.80
2022-09-07T14:59:43.183Z,9.30
2022-09-07T15:02:20.084Z,11.10
2022-09-07T15:04:49.058Z,10.90
2022-09-07T15:07:39.015Z,11.40
2022-09-07T15:10:21.410Z,9.50
2022-09-07T15:12:50.712Z,13.20
2022-09-07T15:15:40.585Z,10.70
2022-09-07T15:18:45.625Z,10.60
2022-09-07T15:21:12.892Z,12.70
2022-09-07T15:23:40.132Z,11.60
2022-09-07T15:27:01.933Z,9.60
2022-09-07T15:29:13.705Z,9.50
2022-09-07T15:31:42.791Z,13.10
2022-09-07T15:34:17.987Z,10.60
2022-09-07T15:36:53.310Z,9.50
2022-09-07T15:39:23.244Z,10.50
2022-09-07T15:41:51.636Z,10.30
2022-09-07T15:44:24.381Z,10.40
2022-09-07T15:49:43.500Z,12.10
2022-09-07T15:52:13.603Z,10.60
2022-09-07T15:54:40.873Z,8.80
2022-09-07T15:59:55.331Z,10.00
2022-09-07T16:05:10.655Z,12.00
2022-09-07T16:10:27.361Z,9.50
2022-09-07T16:13:03.199Z,10.00
2022-09-07T16:15:45.246Z,9.80
2022-09-07T16:18:16.438Z,9.90
2022-09-07T16:20:44.828Z,9.30
2022-09-07T16:23:15.008Z,11.30
2022-09-07T16:25:43.848Z,11.50
2022-09-07T16:28:11.703Z,9.80
2022-09-07T16:30:40.995Z,11.10
2022-09-07T16:33:08.802Z,9.30
2022-09-07T16:35:36.343Z,9.50
2022-09-07T16:40:51.526Z,10.70
2022-09-07T16:43:19.096Z,10.40
2022-09-07T16:48:35.591Z,10.80
2022-09-07T16:51:04.513Z,9.60
2022-09-07T16:53:34.625Z,11.00
2022-09-07T16:56:06.438Z,9.50
2022-09-07T16:58:35.704Z,10.30
2022-09-07T17:01:04.482Z,11.10
2022-09-07T17:03:32.876Z,10.90
2022-09-07T17:06:01.465Z,9.50
2022-09-07T17:08:29.008Z,12.10
2022-09-07T17:11:01.424Z,12.10
2022-09-07T17:13:28.896Z,13.60
2022-09-07T17:16:02.545Z,12.60
2022-09-07T17:21:19.745Z,11.70
2022-09-07T17:23:54.212Z,12.10
2022-09-07T17:26:26.056Z,11.90
2022-09-07T17:28:55.213Z,12.40
2022-09-07T17:34:15.521Z,12.50
2022-09-07T17:36:42.773Z,9.00
2022-09-07T17:39:15.907Z,11.50
2022-09-07T17:41:43.859Z,11.70
2022-09-07T17:44:11.923Z,12.40
2022-09-07T17:46:39.575Z,13.00
2022-09-07T17:49:11.869Z,11.30
2022-09-07T17:51:39.298Z,13.00
2022-09-07T17:54:11.599Z,11.40
2022-09-07T17:56:43.734Z,13.60
2022-09-07T18:02:01.002Z,12.00
2022-09-07T18:04:29.685Z,11.00
2022-09-07T18:06:57.733Z,15.50
2022-09-07T18:09:25.183Z,12.90
2022-09-07T18:11:53.224Z,12.70
2022-09-07T18:14:21.022Z,11.10
2022-09-07T18:16:50.878Z,12.80
2022-09-07T18:19:19.653Z,12.30
2022-09-07T18:21:48.657Z,16.40
2022-09-07T18:24:23.038Z,11.50
2022-09-07T18:26:53.343Z,13.30
2022-09-07T18:29:33.915Z,12.40
2022-09-07T18:32:08.222Z,14.20
2022-09-07T18:34:40.571Z,13.90
2022-09-07T18:37:09.506Z,12.40
2022-09-07T18:39:40.474Z,13.40
2022-09-07T18:42:09.432Z,11.70
2022-09-07T18:47:29.787Z,14.10
2022-09-07T18:49:58.337Z,13.20
2022-09-07T18:55:14.674Z,11.40
2022-09-07T18:57:42.814Z,12.40
2022-09-07T19:00:12.223Z,12.70
2022-09-07T19:02:40.434Z,12.70
2022-09-07T19:07:58.031Z,10.80
2022-09-07T19:10:25.999Z,12.30
2022-09-07T19:12:54.293Z,11.50
2022-09-07T19:15:22.330Z,12.90
2022-09-07T19:17:50.620Z,11.70
2022-09-07T19:20:18.810Z,15.00
2022-09-07T19:22:47.078Z,15.20
2022-09-07T19:25:15.043Z,13.80
2022-09-07T19:27:42.854Z,12.60
2022-09-07T19:30:11.165Z,10.50
2022-09-07T19:32:38.978Z,14.20
2022-09-07T19:35:07.456Z,11.20
2022-09-07T19:37:38.476Z,12.60
2022-09-07T19:40:08.976Z,14.30
2022-09-07T19:42:37.586Z,14.10
2022-09-07T19:45:06.942Z,11.80
2022-09-07T19:47:35.716Z,13.90
2022-09-07T19:50:03.991Z,14.00
2022-09-07T19:52:32.555Z,13.20
2022-09-07T19:55:03.883Z,12.20
2022-09-07T19:57:31.352Z,15.70
2022-09-07T20:00:00.227Z,13.60
2022-09-07T20:02:28.224Z,12.10
2022-09-07T20:04:56.793Z,15.00
2022-09-07T20:07:24.860Z,11.30
2022-09-07T20:09:54.149Z,12.20
2022-09-07T20:12:21.552Z,15.10
2022-09-07T20:14:49.570Z,12.80
2022-09-07T20:17:17.616Z,11.60
2022-09-07T20:19:45.309Z,14.70
2022-09-07T20:22:13.373Z,11.30
2022-09-07T20:24:41.274Z,12.40
2022-09-07T20:27:08.900Z,12.70
2022-09-07T20:29:36.562Z,12.20
2022-09-07T20:32:03.911Z,13.70
2022-09-07T20:34:31.825Z,13.50
2022-09-07T20:37:00.473Z,11.90
2022-09-07T20:39:27.919Z,12.50
2022-09-07T20:41:55.293Z,12.50
2022-09-07T20:44:22.538Z,12.90
2022-09-07T20:46:49.727Z,13.40
2022-09-07T20:49:16.834Z,13.10
2022-09-07T20:51:43.884Z,12.20
2022-09-07T20:54:11.177Z,13.20
2022-09-07T20:56:38.594Z,13.90
2022-09-07T20:59:05.962Z,11.60
2022-09-07T21:01:35.510Z,12.60
2022-09-07T21:04:04.320Z,12.30
2022-09-07T21:06:32.115Z,11.40
2022-09-07T21:09:00.294Z,13.00
2022-09-07T21:11:32.415Z,12.40
2022-09-07T21:14:00.520Z,14.20
2022-09-07T21:16:28.756Z,14.00
2022-09-07T21:18:57.906Z,14.40
2022-09-07T21:21:26.929Z,13.90
2022-09-07T21:23:59.766Z,13.00
2022-09-07T21:26:28.687Z,14.20
2022-09-07T21:28:57.553Z,15.10
2022-09-07T21:31:25.623Z,15.10
2022-09-07T21:33:57.579Z,13.10
2022-09-07T21:36:25.457Z,15.70
2022-09-07T21:38:53.158Z,15.00
2022-09-07T21:41:21.804Z,14.20
2022-09-07T21:43:49.055Z,17.20
2022-09-07T21:46:21.958Z,14.60
2022-09-07T21:48:49.213Z,16.60
2022-09-07T21:51:17.156Z,15.20
2022-09-07T21:53:45.218Z,14.50
2022-09-07T21:56:14.528Z,13.90
2022-09-07T21:58:42.494Z,14.70
2022-09-07T22:01:19.825Z,15.30
2022-09-07T22:03:49.387Z,15.20
2022-09-07T22:06:16.427Z,15.50
2022-09-07T22:08:43.713Z,16.90
2022-09-07T22:11:16.494Z,14.00
2022-09-07T22:13:44.025Z,17.40
2022-09-07T22:16:12.066Z,17.10
2022-09-07T22:18:40.561Z,16.00
2022-09-07T22:21:09.692Z,17.60
2022-09-07T22:23:39.689Z,15.30
2022-09-07T22:26:07.499Z,16.20
2022-09-07T22:28:35.220Z,12.70
2022-09-07T22:31:41.485Z,14.10
2022-09-07T22:34:09.804Z,14.60
2022-09-07T22:36:40.211Z,17.30
2022-09-07T22:39:10.611Z,14.30
2022-09-07T22:41:39.125Z,13.30
2022-09-07T22:44:10.438Z,16.00
2022-09-07T22:46:39.695Z,15.10
2022-09-07T22:49:07.513Z,15.30
2022-09-07T22:51:34.665Z,14.80
2022-09-07T22:54:02.137Z,18.10
2022-09-07T22:56:31.832Z,14.50
2022-09-07T22:59:04.412Z,14.90
2022-09-07T23:01:32.394Z,16.30
2022-09-07T23:04:00.436Z,14.60
2022-09-07T23:06:46.509Z,16.10
2022-09-07T23:09:16.772Z,17.30
2022-09-07T23:11:45.508Z,15.60
2022-09-07T23:14:16.054Z,18.30
2022-09-07T23:16:44.144Z,16.60
2022-09-07T23:19:13.361Z,16.20
2022-09-07T23:21:40.986Z,15.20
2022-09-07T23:24:10.043Z,16.80
2022-09-07T23:26:37.153Z,14.70
2022-09-07T23:29:05.852Z,16.10
2022-09-07T23:31:34.766Z,15.50
2022-09-07T23:34:03.313Z,18.90
2022-09-07T23:36:31.393Z,15.00
2022-09-07T23:39:00.079Z,18.50
2022-09-07T23:41:28.019Z,17.10
2022-09-07T23:43:56.105Z,14.90
2022-09-07T23:46:23.578Z,15.70
2022-09-07T23:48:51.021Z,17.30
2022-09-07T23:51:23.553Z,16.50
2022-09-07T23:53:52.175Z,17.90
2022-09-07T23:56:19.751Z,16.50
2022-09-07T23:58:46.778Z,19.40
